createdAt,value
2018-02-23T00:00:04.946Z,0.00
2018-02-23T00:01:05.105Z,0.00
2018-02-23T00:02:04.631Z,0.00
2018-02-23T00:03:06.664Z,0.00
2018-02-23T00:04:04.111Z,0.00
2018-02-23T00:05:04.080Z,0.00
2018-02-23T00:06:04.744Z,0.00
2018-02-23T00:07:06.154Z,0.00
2018-02-23T00:08:04.832Z,0.00
2018-02-23T00:09:06.031Z,0.00
2018-02-23T00:10:03.972Z,0.00
2018-02-23T00:11:04.555Z,0.00
2018-02-23T00:12:04.769Z,0.00
2018-02-23T00:13:04.158Z,0.00
2018-02-23T00:14:06.669Z,0.00
2018-02-23T00:15:03.662Z,0.00
2018-02-23T00:16:03.549Z,0.00
2018-02-23T00:17:04.257Z,0.00
2018-02-23T00:18:09.002Z,0.00
2018-02-23T00:19:04.057Z,0.00
2018-02-23T00:20:04.087Z,0.00
2018-02-23T00:21:05.480Z,0.00
2018-02-23T00:22:03.805Z,0.00
2018-02-23T00:25:43.936Z,0.00
2018-02-23T00:26:39.528Z,0.00
2018-02-23T00:28:40.310Z,0.00
2018-02-23T00:29:38.710Z,0.00
2018-02-23T00:30:38.572Z,0.00
2018-02-23T00:31:38.592Z,0.00
2018-02-23T00:32:40.516Z,0.00
2018-02-23T00:33:54.134Z,0.00
2018-02-23T00:34:38.351Z,0.00
2018-02-23T00:35:38.410Z,0.00
2018-02-23T00:36:38.142Z,0.00
2018-02-23T00:37:38.359Z,0.00
2018-02-23T00:38:37.898Z,0.00
2018-02-23T00:39:39.760Z,0.00
2018-02-23T00:40:37.858Z,0.00
2018-02-23T00:41:37.912Z,0.00
2018-02-23T00:42:40.176Z,0.00
2018-02-23T00:43:37.822Z,0.00
2018-02-23T00:44:40.904Z,0.00
2018-02-23T00:45:37.830Z,0.00
2018-02-23T00:46:39.331Z,0.00
2018-02-23T00:47:37.762Z,0.00
2018-02-23T00:48:37.700Z,0.00
2018-02-23T00:49:36.832Z,0.00
2018-02-23T00:50:36.770Z,0.00
2018-02-23T00:51:36.442Z,0.00
2018-02-23T00:52:36.795Z,0.00
2018-02-23T00:53:35.588Z,0.00
2018-02-23T00:54:35.349Z,0.00
2018-02-23T00:55:35.597Z,0.00
2018-02-23T00:56:35.996Z,0.00
2018-02-23T00:57:36.554Z,0.00
2018-02-23T00:58:36.374Z,0.00
2018-02-23T00:59:35.801Z,0.00
2018-02-23T01:00:35.074Z,0.00
2018-02-23T01:01:37.729Z,0.00
2018-02-23T01:02:48.412Z,0.00
2018-02-23T01:03:35.701Z,0.00
2018-02-23T01:04:35.080Z,0.00
2018-02-23T01:05:35.789Z,0.00
2018-02-23T01:06:35.073Z,0.00
2018-02-23T01:07:35.582Z,0.00
2018-02-23T01:08:34.983Z,0.00
2018-02-23T01:09:34.869Z,0.00
2018-02-23T01:10:35.592Z,0.00
2018-02-23T01:11:42.048Z,0.00
2018-02-23T01:12:34.287Z,0.00
2018-02-23T01:13:34.591Z,0.00
2018-02-23T01:14:34.746Z,0.00
2018-02-23T01:15:34.710Z,0.00
2018-02-23T01:16:35.083Z,0.00
2018-02-23T01:17:35.170Z,0.00
2018-02-23T01:18:34.283Z,0.00
2018-02-23T01:19:39.152Z,0.00
2018-02-23T01:20:34.429Z,0.00
2018-02-23T01:21:34.038Z,0.00
2018-02-23T01:22:36.830Z,0.00
2018-02-23T01:23:34.257Z,0.00
2018-02-23T01:24:34.556Z,0.00
2018-02-23T01:25:33.698Z,0.00
2018-02-23T01:26:33.879Z,0.00
2018-02-23T01:27:36.391Z,0.00
2018-02-23T01:28:36.029Z,0.00
2018-02-23T01:29:36.378Z,0.00
2018-02-23T01:30:35.772Z,0.00
2018-02-23T01:31:34.067Z,0.00
2018-02-23T01:32:35.370Z,0.00
2018-02-23T01:33:36.507Z,0.00
2018-02-23T01:34:34.845Z,0.00
2018-02-23T01:35:33.391Z,0.00
2018-02-23T01:36:33.372Z,0.00
2018-02-23T01:37:33.697Z,0.00
2018-02-23T01:38:33.507Z,0.00
2018-02-23T01:39:33.643Z,0.00
2018-02-23T01:40:35.500Z,0.00
2018-02-23T01:41:35.790Z,0.00
2018-02-23T01:42:32.916Z,0.00
2018-02-23T01:43:35.384Z,0.00
2018-02-23T01:44:33.013Z,0.00
2018-02-23T01:45:39.434Z,0.00
2018-02-23T01:46:32.851Z,0.00
2018-02-23T01:47:32.997Z,0.00
2018-02-23T01:48:33.007Z,0.00
2018-02-23T01:49:33.147Z,0.00
2018-02-23T01:50:33.376Z,0.00
2018-02-23T01:51:33.108Z,0.00
2018-02-23T01:52:32.849Z,0.00
2018-02-23T01:53:36.256Z,0.00
2018-02-23T01:54:33.269Z,0.00
2018-02-23T01:55:32.856Z,0.00
2018-02-23T01:56:32.645Z,0.00
2018-02-23T01:57:32.583Z,0.00
2018-02-23T01:58:32.176Z,0.00
2018-02-23T01:59:34.504Z,0.00
2018-02-23T02:00:32.321Z,0.00
2018-02-23T02:01:33.667Z,0.00
2018-02-23T02:02:32.068Z,0.00
2018-02-23T02:03:32.833Z,0.00
2018-02-23T02:04:34.453Z,0.00
2018-02-23T02:05:32.522Z,0.00
2018-02-23T02:06:33.465Z,0.00
2018-02-23T02:07:31.577Z,0.00
2018-02-23T02:08:32.235Z,0.00
2018-02-23T02:09:31.490Z,0.00
2018-02-23T02:10:34.703Z,0.00
2018-02-23T02:11:31.460Z,0.00
2018-02-23T02:12:33.376Z,0.00
2018-02-23T02:13:32.191Z,0.00
2018-02-23T02:14:33.064Z,0.00
2018-02-23T02:15:31.341Z,0.00
2018-02-23T02:16:31.690Z,0.00
2018-02-23T02:17:31.327Z,0.00
2018-02-23T02:18:32.789Z,0.00
2018-02-23T02:19:30.970Z,0.00
2018-02-23T02:20:31.537Z,0.00
2018-02-23T02:21:30.952Z,0.00
2018-02-23T02:22:31.580Z,0.00
2018-02-23T02:23:33.490Z,0.00
2018-02-23T02:24:33.085Z,0.00
2018-02-23T02:25:32.611Z,0.00
2018-02-23T02:26:43.491Z,0.00
2018-02-23T02:27:34.148Z,0.00
2018-02-23T02:28:31.895Z,0.00
2018-02-23T02:29:31.231Z,0.00
2018-02-23T02:30:33.960Z,0.00
2018-02-23T02:31:32.850Z,0.00
2018-02-23T02:32:31.502Z,0.00
2018-02-23T02:33:30.495Z,0.00
2018-02-23T02:34:31.279Z,0.00
2018-02-23T02:35:30.712Z,0.00
2018-02-23T02:36:32.743Z,0.00
2018-02-23T02:37:33.604Z,0.00
2018-02-23T02:38:30.693Z,0.00
2018-02-23T02:39:30.944Z,0.00
2018-02-23T02:40:30.684Z,0.00
2018-02-23T02:41:30.329Z,0.00
2018-02-23T02:42:34.350Z,0.00
2018-02-23T02:43:29.895Z,0.00
2018-02-23T02:44:30.059Z,0.00
2018-02-23T02:45:29.696Z,0.00
2018-02-23T02:46:30.336Z,0.00
2018-02-23T02:47:32.486Z,0.00
2018-02-23T02:48:31.318Z,0.00
2018-02-23T02:49:32.617Z,0.00
2018-02-23T02:50:33.535Z,0.00
2018-02-23T02:51:29.554Z,0.00
2018-02-23T02:52:29.893Z,0.00
2018-02-23T02:53:30.819Z,0.00
2018-02-23T02:54:29.873Z,0.00
2018-02-23T02:55:31.019Z,0.00
2018-02-23T02:56:30.163Z,0.00
2018-02-23T02:57:29.211Z,0.00
2018-02-23T02:58:29.785Z,0.00
2018-02-23T02:59:29.401Z,0.00
2018-02-23T03:00:29.139Z,0.00
2018-02-23T03:01:29.716Z,0.00
2018-02-23T03:02:36.579Z,0.00
2018-02-23T03:03:29.263Z,0.00
2018-02-23T03:04:31.204Z,0.00
2018-02-23T03:05:29.369Z,0.00
2018-02-23T03:06:32.168Z,0.00
2018-02-23T03:07:31.587Z,0.00
2018-02-23T03:08:31.923Z,0.00
2018-02-23T03:09:29.067Z,0.00
2018-02-23T03:10:30.007Z,0.00
2018-02-23T03:11:29.140Z,0.00
2018-02-23T03:12:29.632Z,0.00
2018-02-23T03:13:28.676Z,0.00
2018-02-23T03:14:29.132Z,0.00
2018-02-23T03:15:30.755Z,0.00
2018-02-23T03:16:28.791Z,0.00
2018-02-23T03:17:28.170Z,0.00
2018-02-23T03:18:35.784Z,0.00
2018-02-23T03:19:28.576Z,0.00
2018-02-23T03:20:28.994Z,0.00
2018-02-23T03:21:29.068Z,0.00
2018-02-23T03:22:28.651Z,0.00
2018-02-23T03:23:28.536Z,0.00
2018-02-23T03:24:27.881Z,0.00
2018-02-23T03:25:28.155Z,0.00
2018-02-23T03:26:28.739Z,0.00
2018-02-23T03:27:31.295Z,0.00
2018-02-23T03:28:28.252Z,0.00
2018-02-23T03:29:28.156Z,0.00
2018-02-23T03:30:28.010Z,0.00
2018-02-23T03:31:30.148Z,0.00
2018-02-23T03:32:29.900Z,0.00
2018-02-23T03:33:27.860Z,0.00
2018-02-23T03:34:27.847Z,0.00
2018-02-23T03:35:27.428Z,0.00
2018-02-23T03:36:27.098Z,0.00
2018-02-23T03:37:31.328Z,0.00
2018-02-23T03:38:26.996Z,0.00
2018-02-23T03:39:27.182Z,0.00
2018-02-23T03:40:27.735Z,0.00
2018-02-23T03:41:30.599Z,0.00
2018-02-23T03:42:26.859Z,0.00
2018-02-23T03:43:29.017Z,0.00
2018-02-23T03:44:27.687Z,0.00
2018-02-23T03:45:27.784Z,0.00
2018-02-23T03:46:27.125Z,0.00
2018-02-23T03:47:27.223Z,0.00
2018-02-23T03:48:27.508Z,0.00
2018-02-23T03:49:27.050Z,0.00
2018-02-23T03:50:27.472Z,0.00
2018-02-23T03:51:26.438Z,0.00
2018-02-23T03:52:26.540Z,0.00
2018-02-23T03:53:26.723Z,0.00
2018-02-23T03:54:31.658Z,0.00
2018-02-23T03:55:26.378Z,0.00
2018-02-23T03:56:26.593Z,0.00
2018-02-23T03:57:26.593Z,0.00
2018-02-23T03:58:26.741Z,0.00
2018-02-23T03:59:26.694Z,0.00
2018-02-23T04:00:26.070Z,0.00
2018-02-23T04:01:26.180Z,0.00
2018-02-23T04:02:27.773Z,0.00
2018-02-23T04:03:27.387Z,0.00
2018-02-23T04:04:26.140Z,0.00
2018-02-23T04:05:28.372Z,0.00
2018-02-23T04:06:28.438Z,0.00
2018-02-23T04:07:25.656Z,0.00
2018-02-23T04:08:26.093Z,0.00
2018-02-23T04:09:27.294Z,0.00
2018-02-23T04:10:25.565Z,0.00
2018-02-23T04:11:27.666Z,0.00
2018-02-23T04:12:30.165Z,0.00
2018-02-23T04:13:25.444Z,0.00
2018-02-23T04:14:25.836Z,0.00
2018-02-23T04:15:25.413Z,0.00
2018-02-23T04:16:25.361Z,0.00
2018-02-23T04:17:25.845Z,0.00
2018-02-23T04:18:25.251Z,0.00
2018-02-23T04:19:25.310Z,0.00
2018-02-23T04:20:25.121Z,0.00
2018-02-23T04:21:27.412Z,0.00
2018-02-23T04:22:24.819Z,0.00
2018-02-23T04:23:25.594Z,0.00
2018-02-23T04:24:24.935Z,0.00
2018-02-23T04:25:25.167Z,0.00
2018-02-23T04:26:25.137Z,0.00
2018-02-23T04:27:25.028Z,0.00
2018-02-23T04:28:26.044Z,0.00
2018-02-23T04:29:24.764Z,0.00
2018-02-23T04:30:28.206Z,0.00
2018-02-23T04:31:28.262Z,0.00
2018-02-23T04:32:24.437Z,0.00
2018-02-23T04:33:24.488Z,0.00
2018-02-23T04:34:24.328Z,0.00
2018-02-23T04:35:24.323Z,0.00
2018-02-23T04:36:30.178Z,0.00
2018-02-23T04:37:24.444Z,0.00
2018-02-23T04:38:24.348Z,0.00
2018-02-23T04:39:25.959Z,0.00
2018-02-23T04:40:24.846Z,0.00
2018-02-23T04:41:23.991Z,0.00
2018-02-23T04:42:25.395Z,0.00
2018-02-23T04:43:26.764Z,0.00
2018-02-23T04:44:25.478Z,0.00
2018-02-23T04:45:24.733Z,0.00
2018-02-23T04:46:24.398Z,0.00
2018-02-23T04:47:25.294Z,0.00
2018-02-23T04:48:24.341Z,0.00
2018-02-23T04:49:29.012Z,0.00
2018-02-23T04:50:23.829Z,0.00
2018-02-23T04:51:23.886Z,0.00
2018-02-23T04:52:23.866Z,0.00
2018-02-23T04:53:23.406Z,0.00
2018-02-23T04:54:23.642Z,0.00
2018-02-23T04:55:23.589Z,0.00
2018-02-23T04:56:23.277Z,0.00
2018-02-23T04:57:23.319Z,0.00
2018-02-23T04:58:23.894Z,0.00
2018-02-23T04:59:25.638Z,0.00
2018-02-23T05:00:25.006Z,0.00
2018-02-23T05:01:25.429Z,0.00
2018-02-23T05:02:24.225Z,0.00
2018-02-23T05:03:23.843Z,0.00
2018-02-23T05:04:29.531Z,0.00
2018-02-23T05:05:23.170Z,0.00
2018-02-23T05:06:23.078Z,0.00
2018-02-23T05:07:22.473Z,0.00
2018-02-23T05:08:24.415Z,0.00
2018-02-23T05:09:22.521Z,0.00
2018-02-23T05:10:22.525Z,0.00
2018-02-23T05:11:25.307Z,0.00
2018-02-23T05:12:29.701Z,0.00
2018-02-23T05:13:22.550Z,0.00
2018-02-23T05:14:22.593Z,0.00
2018-02-23T05:15:23.161Z,0.00
2018-02-23T05:16:22.997Z,0.00
2018-02-23T05:17:24.591Z,0.00
2018-02-23T05:18:22.224Z,0.00
2018-02-23T05:19:22.142Z,0.00
2018-02-23T05:20:22.250Z,0.00
2018-02-23T05:21:23.668Z,0.00
2018-02-23T05:22:22.171Z,0.00
2018-02-23T05:23:23.319Z,0.00
2018-02-23T05:24:21.781Z,0.00
2018-02-23T05:25:22.252Z,0.00
2018-02-23T05:26:21.609Z,0.00
2018-02-23T05:27:24.233Z,0.00
2018-02-23T05:28:22.182Z,0.00
2018-02-23T05:29:22.293Z,0.00
2018-02-23T05:30:21.333Z,0.00
2018-02-23T05:31:21.296Z,0.00
2018-02-23T05:32:21.963Z,0.00
2018-02-23T05:33:21.557Z,0.00
2018-02-23T05:34:24.124Z,0.00
2018-02-23T05:35:21.868Z,4.00
2018-02-23T05:36:21.711Z,4.00
2018-02-23T05:37:21.563Z,0.00
2018-02-23T05:38:21.682Z,4.00
2018-02-23T05:39:21.882Z,4.00
2018-02-23T05:40:21.629Z,4.00
2018-02-23T05:41:21.771Z,8.00
2018-02-23T05:42:22.660Z,8.00
2018-02-23T05:43:20.810Z,8.00
2018-02-23T05:44:20.855Z,8.00
2018-02-23T05:45:22.515Z,12.00
2018-02-23T05:46:21.834Z,12.00
2018-02-23T05:47:20.726Z,20.00
2018-02-23T05:48:22.337Z,20.00
2018-02-23T05:49:22.685Z,28.00
2018-02-23T05:50:20.663Z,36.00
2018-02-23T05:51:21.413Z,40.00
2018-02-23T05:52:20.579Z,48.00
2018-02-23T05:53:20.772Z,56.00
2018-02-23T05:54:20.706Z,64.00
2018-02-23T05:55:20.270Z,76.00
2018-02-23T05:56:20.381Z,88.00
2018-02-23T05:57:20.658Z,104.00
2018-02-23T05:58:20.801Z,120.00
2018-02-23T05:59:20.150Z,136.00
2018-02-23T06:00:22.337Z,156.00
2018-02-23T06:01:20.368Z,184.00
2018-02-23T06:02:20.266Z,208.00
2018-02-23T06:03:20.027Z,236.00
2018-02-23T06:04:19.844Z,264.00
2018-02-23T06:05:19.713Z,300.00
2018-02-23T06:06:19.896Z,336.00
2018-02-23T06:07:19.897Z,376.00
2018-02-23T06:08:22.844Z,416.00
2018-02-23T06:09:33.620Z,460.00
2018-02-23T06:10:20.204Z,512.00
2018-02-23T06:11:19.994Z,560.00
2018-02-23T06:12:19.281Z,616.00
2018-02-23T06:13:19.934Z,668.00
2018-02-23T06:14:20.818Z,728.00
2018-02-23T06:15:20.363Z,792.00
2018-02-23T06:16:19.264Z,856.00
2018-02-23T06:17:19.882Z,924.00
2018-02-23T06:18:19.018Z,992.00
2018-02-23T06:19:19.036Z,1068.00
2018-02-23T06:20:22.675Z,1140.00
2018-02-23T06:21:20.983Z,1216.00
2018-02-23T06:22:19.034Z,1296.00
2018-02-23T06:23:21.937Z,1372.00
2018-02-23T06:24:19.744Z,1448.00
2018-02-23T06:25:21.976Z,1540.00
2018-02-23T06:26:18.587Z,1628.00
2018-02-23T06:27:21.121Z,1716.00
2018-02-23T06:28:18.813Z,1804.00
2018-02-23T06:29:21.389Z,1896.00
2018-02-23T06:30:18.387Z,1996.00
2018-02-23T06:31:18.529Z,2100.00
2018-02-23T06:32:18.743Z,2212.00
2018-02-23T06:33:18.591Z,2324.00
2018-02-23T06:34:18.547Z,2436.00
2018-02-23T06:35:18.203Z,2536.00
2018-02-23T06:36:18.459Z,2648.00
2018-02-23T06:37:18.284Z,2752.00
2018-02-23T06:38:18.133Z,2864.00
2018-02-23T06:39:17.720Z,2984.00
2018-02-23T06:40:17.988Z,3116.00
2018-02-23T06:41:17.706Z,3244.00
2018-02-23T06:42:18.299Z,3380.00
2018-02-23T06:43:17.731Z,3512.00
2018-02-23T06:44:19.297Z,3632.00
2018-02-23T06:45:18.161Z,3748.00
2018-02-23T06:46:18.001Z,3872.00
2018-02-23T06:47:17.589Z,4000.00
2018-02-23T06:48:20.610Z,4128.00
2018-02-23T06:49:17.398Z,4256.00
2018-02-23T06:50:17.180Z,4384.00
2018-02-23T06:51:17.209Z,4488.00
2018-02-23T06:52:17.204Z,4588.00
2018-02-23T06:53:17.327Z,4692.00
2018-02-23T06:54:16.970Z,4808.00
2018-02-23T06:55:17.420Z,4916.00
2018-02-23T06:56:16.809Z,5032.00
2018-02-23T06:57:16.844Z,5148.00
2018-02-23T06:58:18.801Z,5272.00
2018-02-23T06:59:16.848Z,5404.00
2018-02-23T07:00:17.175Z,5532.00
2018-02-23T07:01:16.589Z,5676.00
2018-02-23T07:02:16.598Z,5816.00
2018-02-23T07:03:16.520Z,5956.00
2018-02-23T07:04:22.051Z,6096.00
2018-02-23T07:05:16.913Z,6216.00
2018-02-23T07:06:16.434Z,6320.00
2018-02-23T07:07:16.333Z,6380.00
2018-02-23T07:08:16.204Z,6548.00
2018-02-23T07:09:16.184Z,6756.00
2018-02-23T07:10:16.030Z,6936.00
2018-02-23T07:11:16.614Z,7208.00
2018-02-23T07:12:16.072Z,7404.00
2018-02-23T07:13:16.157Z,7500.00
2018-02-23T07:14:16.471Z,7532.00
2018-02-23T07:15:15.801Z,7556.00
2018-02-23T07:16:15.877Z,7600.00
2018-02-23T07:17:16.454Z,7652.00
2018-02-23T07:18:16.435Z,7728.00
2018-02-23T07:19:15.648Z,8324.00
2018-02-23T07:20:15.963Z,9036.00
2018-02-23T07:21:15.723Z,9948.00
2018-02-23T07:22:16.046Z,11584.00
2018-02-23T07:23:15.966Z,12340.00
2018-02-23T07:24:15.357Z,12924.00
2018-02-23T07:25:15.925Z,13300.00
2018-02-23T07:26:15.251Z,13588.00
2018-02-23T07:27:15.911Z,13780.00
2018-02-23T07:28:15.920Z,13324.00
2018-02-23T07:29:15.100Z,12684.00
2018-02-23T07:30:16.163Z,14180.00
2018-02-23T07:31:15.479Z,13676.00
2018-02-23T07:32:15.430Z,13976.00
2018-02-23T07:33:15.074Z,14216.00
2018-02-23T07:34:14.837Z,15072.00
2018-02-23T07:35:15.018Z,15616.00
2018-02-23T07:36:15.608Z,16224.00
2018-02-23T07:37:15.023Z,16384.00
2018-02-23T07:38:14.811Z,15108.00
2018-02-23T07:39:14.899Z,14396.00
2018-02-23T07:40:15.420Z,16352.00
2018-02-23T07:41:14.697Z,17248.00
2018-02-23T07:42:14.620Z,17184.00
2018-02-23T07:43:14.610Z,12980.00
2018-02-23T07:44:14.983Z,11352.00
2018-02-23T07:45:14.317Z,11388.00
2018-02-23T07:46:14.320Z,11060.00
2018-02-23T07:47:16.362Z,13188.00
2018-02-23T07:48:14.920Z,13212.00
2018-02-23T07:49:16.913Z,17792.00
2018-02-23T07:50:15.674Z,19072.00
2018-02-23T07:51:14.313Z,20640.00
2018-02-23T07:52:14.760Z,21088.00
2018-02-23T07:53:14.166Z,19680.00
2018-02-23T07:54:14.140Z,21312.00
2018-02-23T07:55:13.958Z,22752.00
2018-02-23T07:56:13.996Z,18528.00
2018-02-23T07:57:14.426Z,16032.00
2018-02-23T07:58:14.467Z,15652.00
2018-02-23T07:59:15.866Z,16600.00
2018-02-23T08:00:17.782Z,19264.00
2018-02-23T08:01:13.969Z,18784.00
2018-02-23T08:02:15.298Z,17792.00
2018-02-23T08:03:13.721Z,19104.00
2018-02-23T08:04:13.891Z,20448.00
2018-02-23T08:05:13.440Z,21280.00
2018-02-23T08:06:13.984Z,26816.00
2018-02-23T08:07:13.417Z,32576.00
2018-02-23T08:08:13.287Z,34208.00
2018-02-23T08:09:13.934Z,33440.00
2018-02-23T08:10:13.362Z,32896.00
2018-02-23T08:11:13.399Z,34880.00
2018-02-23T08:12:13.149Z,35168.00
2018-02-23T08:13:13.255Z,31104.00
2018-02-23T08:14:18.614Z,26688.00
2018-02-23T08:15:14.871Z,30112.00
2018-02-23T08:16:13.517Z,28768.00
2018-02-23T08:17:13.044Z,22592.00
2018-02-23T08:18:13.425Z,17632.00
2018-02-23T08:19:12.894Z,20640.00
2018-02-23T08:20:12.903Z,24800.00
2018-02-23T08:21:12.686Z,22784.00
2018-02-23T08:22:13.418Z,24160.00
2018-02-23T08:23:12.798Z,25984.00
2018-02-23T08:24:13.426Z,28448.00
2018-02-23T08:25:15.251Z,31040.00
2018-02-23T08:26:13.435Z,35904.00
2018-02-23T08:27:12.499Z,31936.00
2018-02-23T08:28:12.363Z,25344.00
2018-02-23T08:29:12.560Z,23936.00
2018-02-23T08:30:12.400Z,32416.00
2018-02-23T08:31:12.572Z,29056.00
2018-02-23T08:32:12.552Z,27008.00
2018-02-23T08:33:12.389Z,23616.00
2018-02-23T08:34:12.965Z,22304.00
2018-02-23T08:35:12.289Z,20384.00
2018-02-23T08:36:12.312Z,26048.00
2018-02-23T08:37:12.035Z,27808.00
2018-02-23T08:38:12.124Z,28544.00
2018-02-23T08:39:12.240Z,30176.00
2018-02-23T08:40:12.449Z,34272.00
2018-02-23T08:41:14.895Z,36576.00
2018-02-23T08:42:12.008Z,33312.00
2018-02-23T08:43:12.437Z,32800.00
2018-02-23T08:44:12.222Z,34144.00
2018-02-23T08:45:12.089Z,31776.00
2018-02-23T08:46:13.111Z,29472.00
2018-02-23T08:47:11.752Z,27360.00
2018-02-23T08:48:12.448Z,32288.00
2018-02-23T08:49:11.533Z,36096.00
2018-02-23T08:50:11.779Z,32384.00
2018-02-23T08:51:12.044Z,28576.00
2018-02-23T08:52:11.625Z,32672.00
2018-02-23T08:53:11.432Z,34112.00
2018-02-23T08:54:11.511Z,29792.00
2018-02-23T08:55:11.496Z,34464.00
2018-02-23T08:56:11.465Z,31296.00
2018-02-23T08:57:11.386Z,40608.00
2018-02-23T08:58:11.136Z,34976.00
2018-02-23T08:59:11.267Z,36480.00
2018-02-23T09:00:11.147Z,44160.00
2018-02-23T09:01:11.137Z,45792.00
2018-02-23T09:02:11.203Z,40832.00
2018-02-23T09:03:11.064Z,26240.00
2018-02-23T09:04:11.024Z,37056.00
2018-02-23T09:05:11.093Z,33792.00
2018-02-23T09:06:10.939Z,44800.00
2018-02-23T09:07:10.972Z,43392.00
2018-02-23T09:08:10.799Z,40896.00
2018-02-23T09:09:11.442Z,41824.00
2018-02-23T09:10:11.065Z,46496.00
2018-02-23T09:11:11.122Z,43808.00
2018-02-23T09:12:10.659Z,44000.00
2018-02-23T09:13:11.053Z,41312.00
2018-02-23T09:14:10.547Z,28384.00
2018-02-23T09:15:10.553Z,31552.00
2018-02-23T09:16:10.439Z,45792.00
2018-02-23T09:17:10.549Z,47904.00
2018-02-23T09:18:10.553Z,41632.00
2018-02-23T09:19:10.380Z,34112.00
2018-02-23T09:20:10.322Z,40736.00
2018-02-23T09:21:10.469Z,47808.00
2018-02-23T09:22:10.559Z,49632.00
2018-02-23T09:23:10.938Z,47776.00
2018-02-23T09:24:10.191Z,46720.00
2018-02-23T09:25:10.312Z,47808.00
2018-02-23T09:26:10.352Z,43296.00
2018-02-23T09:27:10.937Z,47200.00
2018-02-23T09:28:10.134Z,53952.00
2018-02-23T09:29:10.009Z,53056.00
2018-02-23T09:30:10.094Z,49728.00
2018-02-23T09:31:10.448Z,48608.00
2018-02-23T09:32:10.259Z,47680.00
2018-02-23T09:33:09.918Z,52384.00
2018-02-23T09:34:09.910Z,55168.00
2018-02-23T09:35:09.846Z,56032.00
2018-02-23T09:36:10.448Z,57088.00
2018-02-23T09:37:09.738Z,53024.00
2018-02-23T09:38:09.686Z,51616.00
2018-02-23T09:39:09.728Z,53472.00
2018-02-23T09:40:09.869Z,55520.00
2018-02-23T09:41:09.598Z,55104.00
2018-02-23T09:42:09.639Z,57344.00
2018-02-23T09:43:09.641Z,55712.00
2018-02-23T09:44:10.441Z,57312.00
2018-02-23T09:45:09.513Z,57536.00
2018-02-23T09:46:09.402Z,52512.00
2018-02-23T09:47:09.485Z,60800.00
2018-02-23T09:48:09.438Z,61792.00
2018-02-23T09:49:09.290Z,58624.00
2018-02-23T09:50:09.394Z,56032.00
2018-02-23T09:51:10.479Z,54240.00
2018-02-23T09:52:09.224Z,60928.00
2018-02-23T09:53:09.338Z,57792.00
2018-02-23T09:54:09.146Z,55744.00
2018-02-23T09:55:09.282Z,58912.00
2018-02-23T09:56:09.083Z,60672.00
2018-02-23T09:57:09.165Z,62624.00
2018-02-23T09:58:09.212Z,61728.00
2018-02-23T09:59:09.037Z,62272.00
2018-02-23T10:00:09.452Z,69568.00
2018-02-23T10:01:08.919Z,71168.00
2018-02-23T10:02:08.886Z,62848.00
2018-02-23T10:03:08.868Z,61888.00
2018-02-23T10:04:08.806Z,59456.00
2018-02-23T10:05:08.835Z,66016.00
2018-02-23T10:06:08.806Z,64288.00
2018-02-23T10:07:08.706Z,64544.00
2018-02-23T10:08:08.696Z,64320.00
2018-02-23T10:09:08.704Z,63328.00
2018-02-23T10:10:08.625Z,68576.00
2018-02-23T10:11:08.588Z,62112.00
2018-02-23T10:12:08.563Z,68640.00
2018-02-23T10:13:08.658Z,57824.00
2018-02-23T10:14:08.503Z,60736.00
2018-02-23T10:15:08.447Z,59264.00
2018-02-23T10:16:08.479Z,29472.00
2018-02-23T10:17:08.539Z,30976.00
2018-02-23T10:18:08.508Z,23584.00
2018-02-23T10:19:08.451Z,48704.00
2018-02-23T10:20:08.497Z,37280.00
2018-02-23T10:21:08.326Z,32704.00
2018-02-23T10:22:08.260Z,19344.00
2018-02-23T10:23:08.398Z,20672.00
2018-02-23T10:24:08.193Z,66720.00
2018-02-23T10:25:08.160Z,60032.00
2018-02-23T10:26:08.135Z,65152.00
2018-02-23T10:27:08.145Z,23424.00
2018-02-23T10:28:08.034Z,19028.00
2018-02-23T10:29:07.984Z,43616.00
2018-02-23T10:30:07.977Z,25824.00
2018-02-23T10:31:07.971Z,64000.00
2018-02-23T10:32:08.139Z,68832.00
2018-02-23T10:33:07.936Z,63200.00
2018-02-23T10:34:07.801Z,66112.00
2018-02-23T10:35:08.474Z,66560.00
2018-02-23T10:36:07.742Z,67040.00
2018-02-23T10:37:07.754Z,58432.00
2018-02-23T10:38:07.780Z,55104.00
2018-02-23T10:39:07.662Z,44288.00
2018-02-23T10:40:07.650Z,20864.00
2018-02-23T10:41:07.724Z,64736.00
2018-02-23T10:42:07.609Z,60736.00
2018-02-23T10:43:07.601Z,36640.00
2018-02-23T10:44:08.574Z,31680.00
2018-02-23T10:45:07.430Z,59840.00
2018-02-23T10:46:07.440Z,72192.00
2018-02-23T10:47:07.391Z,66976.00
2018-02-23T10:48:07.418Z,66368.00
2018-02-23T10:49:07.974Z,64736.00
2018-02-23T10:50:07.231Z,67968.00
2018-02-23T10:51:07.225Z,65472.00
2018-02-23T10:52:07.187Z,54464.00
2018-02-23T10:53:07.970Z,65440.00
2018-02-23T10:54:07.144Z,60800.00
2018-02-23T10:55:08.085Z,60896.00
2018-02-23T10:56:07.118Z,61984.00
2018-02-23T10:57:06.991Z,65472.00
2018-02-23T10:58:07.483Z,65888.00
2018-02-23T10:59:06.914Z,63840.00
2018-02-23T11:00:07.000Z,65760.00
2018-02-23T11:01:06.847Z,65696.00
2018-02-23T11:02:06.853Z,71168.00
2018-02-23T11:03:06.838Z,70176.00
2018-02-23T11:04:06.818Z,68992.00
2018-02-23T11:05:06.781Z,63648.00
2018-02-23T11:06:06.689Z,61408.00
2018-02-23T11:07:06.623Z,68576.00
2018-02-23T11:08:06.728Z,78272.00
2018-02-23T11:09:06.603Z,81664.00
2018-02-23T11:10:06.580Z,79008.00
2018-02-23T11:11:06.553Z,69952.00
2018-02-23T11:12:06.495Z,70208.00
2018-02-23T11:13:06.974Z,69408.00
2018-02-23T11:14:06.392Z,72544.00
2018-02-23T11:15:06.382Z,72224.00
2018-02-23T11:16:06.438Z,66720.00
2018-02-23T11:17:06.310Z,62528.00
2018-02-23T11:18:06.256Z,64896.00
2018-02-23T11:19:06.217Z,71680.00
2018-02-23T11:20:06.190Z,76416.00
2018-02-23T11:21:06.408Z,70560.00
2018-02-23T11:22:06.125Z,66912.00
2018-02-23T11:23:06.206Z,68416.00
2018-02-23T11:24:06.046Z,65760.00
2018-02-23T11:25:06.321Z,65376.00
2018-02-23T11:26:07.635Z,60960.00
2018-02-23T11:27:05.961Z,65216.00
2018-02-23T11:28:05.926Z,66528.00
2018-02-23T11:29:05.989Z,65344.00
2018-02-23T11:30:05.924Z,64704.00
2018-02-23T11:31:06.498Z,64352.00
2018-02-23T11:32:05.814Z,65440.00
2018-02-23T11:33:05.788Z,66752.00
2018-02-23T11:34:05.749Z,66720.00
2018-02-23T11:35:05.694Z,65184.00
2018-02-23T11:36:05.667Z,66496.00
2018-02-23T11:37:05.639Z,67264.00
2018-02-23T11:38:05.590Z,67776.00
2018-02-23T11:39:05.554Z,63456.00
2018-02-23T11:40:05.517Z,66432.00
2018-02-23T11:41:05.523Z,64032.00
2018-02-23T11:42:05.461Z,65248.00
2018-02-23T11:43:05.507Z,60320.00
2018-02-23T11:44:05.490Z,63488.00
2018-02-23T11:45:05.502Z,62624.00
2018-02-23T11:46:05.344Z,69536.00
2018-02-23T11:47:05.313Z,67360.00
2018-02-23T11:48:05.293Z,71264.00
2018-02-23T11:49:05.451Z,64960.00
2018-02-23T11:50:05.270Z,63616.00
2018-02-23T11:51:05.191Z,58528.00
2018-02-23T11:52:05.146Z,69824.00
2018-02-23T11:53:05.120Z,67744.00
2018-02-23T11:54:05.083Z,72448.00
2018-02-23T11:55:05.087Z,70176.00
2018-02-23T11:56:05.020Z,72256.00
2018-02-23T11:57:05.019Z,69728.00
2018-02-23T11:58:04.931Z,73888.00
2018-02-23T11:59:05.046Z,72320.00
2018-02-23T12:00:04.897Z,70080.00
2018-02-23T12:01:04.863Z,64608.00
2018-02-23T12:02:04.806Z,64832.00
2018-02-23T12:03:04.789Z,64480.00
2018-02-23T12:04:04.798Z,69664.00
2018-02-23T12:05:04.713Z,76000.00
2018-02-23T12:06:04.685Z,82016.00
2018-02-23T12:07:04.652Z,72928.00
2018-02-23T12:08:04.604Z,75136.00
2018-02-23T12:09:04.584Z,68064.00
2018-02-23T12:10:04.602Z,74208.00
2018-02-23T12:11:04.519Z,71296.00
2018-02-23T12:12:04.480Z,77984.00
2018-02-23T12:13:04.476Z,77472.00
2018-02-23T12:14:04.405Z,74208.00
2018-02-23T12:15:04.480Z,69504.00
2018-02-23T12:16:04.462Z,71744.00
2018-02-23T12:17:04.351Z,66912.00
2018-02-23T12:18:04.413Z,69536.00
2018-02-23T12:19:04.345Z,67744.00
2018-02-23T12:20:04.231Z,59744.00
2018-02-23T12:21:04.182Z,55328.00
2018-02-23T12:22:04.212Z,60064.00
2018-02-23T12:23:04.380Z,64864.00
2018-02-23T12:24:04.088Z,63488.00
2018-02-23T12:25:04.049Z,63040.00
2018-02-23T12:26:04.054Z,49952.00
2018-02-23T12:27:04.022Z,36672.00
2018-02-23T12:28:03.951Z,35008.00
2018-02-23T12:29:03.923Z,32320.00
2018-02-23T12:30:03.903Z,31040.00
2018-02-23T12:31:03.886Z,31712.00